sensor_id;sensor_type;location;lat;lon;timestamp;temperature;humidity
20590;DHT22;10453;50.810;12.540;2022-09-03T00:00:55;11.60;99.90
20590;DHT22;10453;50.810;12.540;2022-09-03T00:09:42;11.50;99.90
20590;DHT22;10453;50.810;12.540;2022-09-03T00:14:11;11.50;99.90
20590;DHT22;10453;50.810;12.540;2022-09-03T00:18:32;11.50;99.90
20590;DHT22;10453;50.810;12.540;2022-09-03T00:22:53;11.50;99.90
20590;DHT22;10453;50.810;12.540;2022-09-03T00:27:19;11.50;99.90
20590;DHT22;10453;50.810;12.540;2022-09-03T00:32:00;11.60;99.90
20590;DHT22;10453;50.810;12.540;2022-09-03T00:36:35;11.60;99.90
20590;DHT22;10453;50.810;12.540;2022-09-03T00:41:08;11.60;99.90
20590;DHT22;10453;50.810;12.540;2022-09-03T00:45:48;11.60;99.90
20590;DHT22;10453;50.810;12.540;2022-09-03T00:50:32;11.50;99.90
20590;DHT22;10453;50.810;12.540;2022-09-03T00:59:54;11.60;99.90
20590;DHT22;10453;50.810;12.540;2022-09-03T01:04:33;11.50;99.90
20590;DHT22;10453;50.810;12.540;2022-09-03T01:13:46;11.20;99.90
20590;DHT22;10453;50.810;12.540;2022-09-03T01:18:28;11.10;99.90
20590;DHT22;10453;50.810;12.540;2022-09-03T01:32:08;10.80;99.90
20590;DHT22;10453;50.810;12.540;2022-09-03T01:36:45;10.80;99.90
20590;DHT22;10453;50.810;12.540;2022-09-03T01:46:08;10.60;99.90
20590;DHT22;10453;50.810;12.540;2022-09-03T01:50:37;10.50;99.90
20590;DHT22;10453;50.810;12.540;2022-09-03T01:59:54;10.50;99.90
20590;DHT22;10453;50.810;12.540;2022-09-03T02:04:18;10.30;99.90
20590;DHT22;10453;50.810;12.540;2022-09-03T02:08:37;10.30;99.90
20590;DHT22;10453;50.810;12.540;2022-09-03T02:13:03;10.20;99.90
20590;DHT22;10453;50.810;12.540;2022-09-03T02:17:21;10.10;99.90
20590;DHT22;10453;50.810;12.540;2022-09-03T02:21:45;9.90;99.90
20590;DHT22;10453;50.810;12.540;2022-09-03T02:26:03;9.70;99.90
20590;DHT22;10453;50.810;12.540;2022-09-03T02:30:22;9.50;99.90
20590;DHT22;10453;50.810;12.540;2022-09-03T02:34:41;9.40;99.90
20590;DHT22;10453;50.810;12.540;2022-09-03T02:39:00;9.40;99.90
20590;DHT22;10453;50.810;12.540;2022-09-03T02:43:25;9.40;99.90
20590;DHT22;10453;50.810;12.540;2022-09-03T02:47:44;9.40;99.90
20590;DHT22;10453;50.810;12.540;2022-09-03T02:52:08;9.30;99.90
20590;DHT22;10453;50.810;12.540;2022-09-03T02:56:27;9.30;99.90
20590;DHT22;10453;50.810;12.540;2022-09-03T03:00:45;9.20;99.90
20590;DHT22;10453;50.810;12.540;2022-09-03T03:05:05;9.10;99.90
20590;DHT22;10453;50.810;12.540;2022-09-03T03:09:26;9.00;99.90
20590;DHT22;10453;50.810;12.540;2022-09-03T03:13:44;8.80;99.90
20590;DHT22;10453;50.810;12.540;2022-09-03T03:18:02;8.70;99.90
20590;DHT22;10453;50.810;12.540;2022-09-03T03:22:19;8.60;99.90
20590;DHT22;10453;50.810;12.540;2022-09-03T03:26:36;8.60;99.90
20590;DHT22;10453;50.810;12.540;2022-09-03T03:30:53;8.50;99.90
20590;DHT22;10453;50.810;12.540;2022-09-03T03:35:11;8.40;99.90
20590;DHT22;10453;50.810;12.540;2022-09-03T03:39:28;8.30;99.90
20590;DHT22;10453;50.810;12.540;2022-09-03T03:43:45;8.30;99.90
20590;DHT22;10453;50.810;12.540;2022-09-03T03:48:03;8.20;99.90
20590;DHT22;10453;50.810;12.540;2022-09-03T03:52:21;8.10;99.90
20590;DHT22;10453;50.810;12.540;2022-09-03T03:56:38;8.00;99.90
20590;DHT22;10453;50.810;12.540;2022-09-03T04:01:02;8.00;99.90
20590;DHT22;10453;50.810;12.540;2022-09-03T04:05:19;7.90;99.90
20590;DHT22;10453;50.810;12.540;2022-09-03T04:09:40;7.80;99.90
20590;DHT22;10453;50.810;12.540;2022-09-03T04:13:57;7.80;99.90
20590;DHT22;10453;50.810;12.540;2022-09-03T04:18:14;7.80;99.90
20590;DHT22;10453;50.810;12.540;2022-09-03T04:22:31;7.70;99.90
20590;DHT22;10453;50.810;12.540;2022-09-03T04:26:49;7.60;99.90
20590;DHT22;10453;50.810;12.540;2022-09-03T04:31:09;7.50;99.90
20590;DHT22;10453;50.810;12.540;2022-09-03T04:35:27;7.50;99.90
20590;DHT22;10453;50.810;12.540;2022-09-03T04:39:53;7.40;99.90
20590;DHT22;10453;50.810;12.540;2022-09-03T04:44:10;7.40;99.90
20590;DHT22;10453;50.810;12.540;2022-09-03T04:48:29;7.50;99.90
20590;DHT22;10453;50.810;12.540;2022-09-03T04:52:46;7.40;99.90
20590;DHT22;10453;50.810;12.540;2022-09-03T04:57:04;7.40;99.90
20590;DHT22;10453;50.810;12.540;2022-09-03T05:01:23;7.40;99.90
20590;DHT22;10453;50.810;12.540;2022-09-03T05:05:41;7.40;99.90
20590;DHT22;10453;50.810;12.540;2022-09-03T05:09:58;7.50;99.90
20590;DHT22;10453;50.810;12.540;2022-09-03T05:14:16;7.50;99.90
20590;DHT22;10453;50.810;12.540;2022-09-03T05:18:34;7.60;99.90
20590;DHT22;10453;50.810;12.540;2022-09-03T05:23:01;7.70;99.90
20590;DHT22;10453;50.810;12.540;2022-09-03T05:27:19;7.70;99.90
20590;DHT22;10453;50.810;12.540;2022-09-03T05:31:37;7.80;99.90
20590;DHT22;10453;50.810;12.540;2022-09-03T05:36:00;7.90;99.90
20590;DHT22;10453;50.810;12.540;2022-09-03T05:40:18;8.00;99.90
20590;DHT22;10453;50.810;12.540;2022-09-03T05:44:35;8.20;99.90
20590;DHT22;10453;50.810;12.540;2022-09-03T05:48:52;8.30;99.90
20590;DHT22;10453;50.810;12.540;2022-09-03T05:53:10;8.40;99.90
20590;DHT22;10453;50.810;12.540;2022-09-03T05:57:27;8.60;99.90
20590;DHT22;10453;50.810;12.540;2022-09-03T06:01:46;8.70;99.90
20590;DHT22;10453;50.810;12.540;2022-09-03T06:06:09;8.90;99.90
20590;DHT22;10453;50.810;12.540;2022-09-03T06:10:26;9.20;99.90
20590;DHT22;10453;50.810;12.540;2022-09-03T06:14:56;9.40;99.90
20590;DHT22;10453;50.810;12.540;2022-09-03T06:19:14;9.70;99.90
20590;DHT22;10453;50.810;12.540;2022-09-03T06:23:32;9.90;99.90
20590;DHT22;10453;50.810;12.540;2022-09-03T06:27:52;10.20;99.90
20590;DHT22;10453;50.810;12.540;2022-09-03T06:32:09;10.40;99.90
20590;DHT22;10453;50.810;12.540;2022-09-03T06:36:26;10.70;99.90
20590;DHT22;10453;50.810;12.540;2022-09-03T06:40:51;11.00;99.90
20590;DHT22;10453;50.810;12.540;2022-09-03T06:45:09;11.20;99.90
20590;DHT22;10453;50.810;12.540;2022-09-03T06:49:28;11.50;99.90
20590;DHT22;10453;50.810;12.540;2022-09-03T06:53:49;11.70;99.90
20590;DHT22;10453;50.810;12.540;2022-09-03T06:58:06;12.10;99.90
20590;DHT22;10453;50.810;12.540;2022-09-03T07:02:25;12.40;99.90
20590;DHT22;10453;50.810;12.540;2022-09-03T07:06:42;12.70;99.90
20590;DHT22;10453;50.810;12.540;2022-09-03T07:11:03;13.00;99.90
20590;DHT22;10453;50.810;12.540;2022-09-03T07:15:25;13.30;99.90
20590;DHT22;10453;50.810;12.540;2022-09-03T07:19:42;13.50;99.90
20590;DHT22;10453;50.810;12.540;2022-09-03T07:23:59;13.70;99.90
20590;DHT22;10453;50.810;12.540;2022-09-03T07:28:17;14.10;99.90
20590;DHT22;10453;50.810;12.540;2022-09-03T07:32:34;14.60;99.90
20590;DHT22;10453;50.810;12.540;2022-09-03T07:36:53;14.90;99.90
20590;DHT22;10453;50.810;12.540;2022-09-03T07:41:12;15.00;99.90
20590;DHT22;10453;50.810;12.540;2022-09-03T07:45:49;15.30;99.90
20590;DHT22;10453;50.810;12.540;2022-09-03T07:50:07;15.50;99.90
20590;DHT22;10453;50.810;12.540;2022-09-03T07:54:24;15.90;99.90
20590;DHT22;10453;50.810;12.540;2022-09-03T07:58:43;16.40;99.90
20590;DHT22;10453;50.810;12.540;2022-09-03T08:03:00;16.90;99.90
20590;DHT22;10453;50.810;12.540;2022-09-03T08:07:22;17.20;99.90
20590;DHT22;10453;50.810;12.540;2022-09-03T08:11:42;17.50;99.90
20590;DHT22;10453;50.810;12.540;2022-09-03T08:16:00;17.90;99.90
20590;DHT22;10453;50.810;12.540;2022-09-03T08:20:19;18.10;98.50
20590;DHT22;10453;50.810;12.540;2022-09-03T08:24:36;18.60;99.90
20590;DHT22;10453;50.810;12.540;2022-09-03T08:28:54;18.90;97.20
20590;DHT22;10453;50.810;12.540;2022-09-03T08:33:11;19.40;96.00
20590;DHT22;10453;50.810;12.540;2022-09-03T08:37:28;19.50;93.60
20590;DHT22;10453;50.810;12.540;2022-09-03T08:46:09;20.90;83.10
20590;DHT22;10453;50.810;12.540;2022-09-03T08:50:30;21.90;81.70
20590;DHT22;10453;50.810;12.540;2022-09-03T08:54:49;22.90;76.10
20590;DHT22;10453;50.810;12.540;2022-09-03T08:59:08;23.50;69.80
20590;DHT22;10453;50.810;12.540;2022-09-03T09:08:18;24.70;60.40
20590;DHT22;10453;50.810;12.540;2022-09-03T09:21:41;24.70;58.70
20590;DHT22;10453;50.810;12.540;2022-09-03T09:26:07;25.50;57.50
20590;DHT22;10453;50.810;12.540;2022-09-03T09:30:28;25.40;56.10
20590;DHT22;10453;50.810;12.540;2022-09-03T09:34:46;25.30;54.40
20590;DHT22;10453;50.810;12.540;2022-09-03T09:39:09;25.50;55.30
20590;DHT22;10453;50.810;12.540;2022-09-03T09:43:27;26.00;55.00
20590;DHT22;10453;50.810;12.540;2022-09-03T09:47:45;26.30;53.20
20590;DHT22;10453;50.810;12.540;2022-09-03T09:52:12;26.70;55.10
20590;DHT22;10453;50.810;12.540;2022-09-03T09:56:30;26.40;51.30
20590;DHT22;10453;50.810;12.540;2022-09-03T10:05:28;26.50;53.40
20590;DHT22;10453;50.810;12.540;2022-09-03T10:10:16;27.40;51.20
20590;DHT22;10453;50.810;12.540;2022-09-03T10:14:41;27.20;49.90
20590;DHT22;10453;50.810;12.540;2022-09-03T10:19:09;27.40;51.40
20590;DHT22;10453;50.810;12.540;2022-09-03T10:23:31;27.40;50.70
20590;DHT22;10453;50.810;12.540;2022-09-03T10:27:50;28.30;47.10
20590;DHT22;10453;50.810;12.540;2022-09-03T10:46:08;29.80;44.10
20590;DHT22;10453;50.810;12.540;2022-09-03T10:50:30;30.20;45.90
20590;DHT22;10453;50.810;12.540;2022-09-03T10:55:17;29.60;46.50
20590;DHT22;10453;50.810;12.540;2022-09-03T11:04:27;29.00;47.30
